Time;durP1;ratioP1;P1;durP2;ratioP2;P2;SDS_P1;SDS_P2;PMS_P1;PMS_P2;Temp;Humidity;BMP_temperature;BMP_pressure;BME280_temperature;BME280_humidity;BME280_pressure;Samples;Min_cycle;Max_cycle;Signal;HPM_P1;HPM_P2
2021/05/13 00:00:28;;;;;;;2.28;0.77;;;19.50;56.70;;;;;;5052625;28;20202;-69
2021/05/13 00:02:53;;;;;;;1.00;0.90;;;19.50;56.70;;;;;;5053064;28;20576;-70
2021/05/13 00:05:19;;;;;;;0.98;0.95;;;19.50;56.70;;;;;;5052717;28;20207;-69
2021/05/13 00:07:44;;;;;;;1.13;0.82;;;19.40;56.60;;;;;;5052831;28;20182;-69
2021/05/13 00:10:14;;;;;;;1.08;0.88;;;19.40;56.60;;;;;;5052739;28;20180;-69
2021/05/13 00:12:49;;;;;;;0.73;0.60;;;19.40;56.70;;;;;;5052393;28;20172;-69
2021/05/13 00:15:20;;;;;;;1.38;0.88;;;19.40;57.30;;;;;;5054889;28;20547;-69
2021/05/13 00:17:45;;;;;;;1.73;0.90;;;19.50;56.70;;;;;;5055821;28;20983;-69
2021/05/13 00:20:13;;;;;;;0.65;0.60;;;19.40;56.60;;;;;;5056648;28;20763;-69
2021/05/13 00:22:38;;;;;;;1.58;0.88;;;19.50;56.70;;;;;;5056180;28;20641;-69
2021/05/13 00:25:05;;;;;;;1.15;0.68;;;19.40;56.60;;;;;;5055201;28;20243;-69
2021/05/13 00:27:31;;;;;;;0.73;0.73;;;19.40;56.60;;;;;;5055714;28;20690;-68
2021/05/13 00:29:56;;;;;;;0.70;0.60;;;19.40;56.60;;;;;;5056298;28;20175;-69
2021/05/13 00:32:22;;;;;;;5.05;1.10;;;19.40;56.60;;;;;;5055461;28;20175;-69
2021/05/13 00:34:47;;;;;;;0.98;0.70;;;19.40;56.60;;;;;;5055910;28;20645;-69
2021/05/13 00:37:13;;;;;;;1.02;0.88;;;19.40;56.60;;;;;;5055919;28;20198;-69
2021/05/13 00:39:38;;;;;;;1.08;0.73;;;19.40;56.60;;;;;;5055276;28;20309;-69
2021/05/13 00:42:04;;;;;;;1.65;1.10;;;19.40;56.60;;;;;;5055812;28;20232;-69
2021/05/13 00:44:33;;;;;;;1.13;0.70;;;19.30;56.50;;;;;;5055928;28;20634;-69
2021/05/13 00:46:58;;;;;;;0.80;0.60;;;19.40;56.60;;;;;;5054886;28;20282;-69
2021/05/13 00:49:24;;;;;;;1.50;0.70;;;19.30;56.50;;;;;;5056061;28;20225;-69
2021/05/13 00:51:49;;;;;;;1.13;0.85;;;19.40;56.60;;;;;;5055532;28;20656;-69
2021/05/13 00:54:17;;;;;;;1.73;0.80;;;19.30;56.60;;;;;;5037068;28;20179;-69
2021/05/13 00:56:43;;;;;;;1.15;0.80;;;19.30;56.50;;;;;;5055304;28;20179;-70
2021/05/13 00:59:10;;;;;;;1.23;0.80;;;19.30;56.50;;;;;;5055599;28;20233;-69
2021/05/13 01:01:58;;;;;;;1.83;0.70;;;19.30;56.50;;;;;;5054506;28;20622;-70
2021/05/13 01:04:23;;;;;;;0.90;0.80;;;19.30;56.50;;;;;;5040525;28;20200;-69
2021/05/13 01:06:48;;;;;;;1.38;0.73;;;19.30;56.50;;;;;;5054518;28;20215;-69
2021/05/13 01:09:21;;;;;;;0.88;0.75;;;19.30;56.50;;;;;;5055463;28;20183;-68
2021/05/13 01:11:50;;;;;;;1.25;0.70;;;19.30;56.50;;;;;;5055168;28;20262;-69
2021/05/13 01:14:21;;;;;;;1.45;0.90;;;19.30;56.50;;;;;;5055106;28;20172;-69
2021/05/13 01:19:26;;;;;;;1.27;0.75;;;19.30;56.50;;;;;;5055939;28;20183;-69
2021/05/13 01:21:51;;;;;;;1.20;0.73;;;19.30;56.50;;;;;;5054295;28;20183;-69
2021/05/13 01:24:17;;;;;;;1.25;1.17;;;19.30;56.50;;;;;;5055002;28;20222;-68
2021/05/13 01:26:46;;;;;;;1.05;0.63;;;19.30;56.50;;;;;;5054070;28;20306;-68
2021/05/13 01:29:12;;;;;;;1.15;0.90;;;19.30;56.50;;;;;;5054867;28;20176;-67
2021/05/13 01:31:38;;;;;;;0.75;0.60;;;19.30;56.60;;;;;;5055352;28;20175;-67
2021/05/13 01:34:06;;;;;;;1.13;0.50;;;19.30;56.50;;;;;;5055235;28;20175;-67
2021/05/13 01:36:33;;;;;;;0.90;0.75;;;19.20;56.50;;;;;;5054714;28;20664;-68
2021/05/13 01:38:59;;;;;;;0.50;0.50;;;19.20;56.50;;;;;;5055369;28;20587;-68
2021/05/13 01:41:24;;;;;;;0.93;0.60;;;19.20;56.50;;;;;;5055216;28;20167;-68
2021/05/13 01:43:50;;;;;;;0.90;0.73;;;19.20;56.50;;;;;;5054162;28;20830;-68
2021/05/13 01:46:15;;;;;;;0.88;0.80;;;19.20;56.50;;;;;;5055004;28;20578;-68
2021/05/13 01:48:42;;;;;;;0.93;0.70;;;19.20;56.50;;;;;;5054768;28;20174;-68
2021/05/13 01:51:07;;;;;;;1.15;0.57;;;19.20;56.50;;;;;;5054365;28;20186;-68
2021/05/13 01:53:33;;;;;;;0.95;0.52;;;19.20;56.50;;;;;;5054693;28;20175;-68
2021/05/13 01:55:58;;;;;;;1.52;0.60;;;19.20;56.50;;;;;;5054183;28;20379;-68
2021/05/13 01:58:24;;;;;;;0.50;0.50;;;19.20;56.50;;;;;;5054925;28;20206;-68
2021/05/13 02:00:50;;;;;;;1.13;0.70;;;19.20;56.50;;;;;;5054555;28;20179;-68
2021/05/13 02:03:15;;;;;;;0.90;0.70;;;19.10;56.40;;;;;;5054315;28;20176;-69
2021/05/13 02:05:41;;;;;;;0.90;0.60;;;19.20;56.50;;;;;;5054244;28;20199;-68
2021/05/13 02:08:06;;;;;;;1.58;0.73;;;19.20;56.50;;;;;;5054659;28;20172;-67
2021/05/13 02:10:32;;;;;;;1.38;0.70;;;19.10;56.50;;;;;;5053610;28;20182;-67
2021/05/13 02:12:59;;;;;;;1.10;0.63;;;19.10;56.40;;;;;;5054670;28;20194;-68
2021/05/13 02:15:25;;;;;;;0.75;0.65;;;19.10;56.50;;;;;;5054185;28;20175;-68
2021/05/13 02:17:51;;;;;;;1.27;0.77;;;19.10;56.40;;;;;;5053025;28;20240;-68
2021/05/13 02:20:19;;;;;;;0.52;0.52;;;19.10;56.40;;;;;;5054329;28;20992;-68
2021/05/13 02:22:45;;;;;;;0.80;0.70;;;19.10;56.40;;;;;;5054219;28;20550;-68
2021/05/13 02:25:10;;;;;;;1.33;0.70;;;19.10;56.40;;;;;;5053513;28;20720;-68
2021/05/13 02:27:36;;;;;;;0.68;0.68;;;19.10;56.40;;;;;;5054079;28;20190;-67
2021/05/13 02:30:04;;;;;;;0.93;0.50;;;19.10;56.40;;;;;;5054274;28;20630;-68
2021/05/13 02:32:29;;;;;;;1.02;0.57;;;19.10;56.40;;;;;;5053274;28;20556;-68
2021/05/13 02:34:55;;;;;;;0.98;0.75;;;19.10;56.40;;;;;;5053902;28;20186;-68
2021/05/13 02:37:20;;;;;;;1.08;0.73;;;19.10;56.40;;;;;;5053874;28;20171;-68
2021/05/13 02:39:47;;;;;;;1.10;0.70;;;19.10;56.40;;;;;;5052265;28;20179;-69
2021/05/13 02:42:12;;;;;;;1.65;1.02;;;19.10;56.40;;;;;;5053575;28;20709;-69
2021/05/13 02:44:41;;;;;;;0.52;0.45;;;19.10;56.40;;;;;;5053772;28;20195;-69
2021/05/13 02:47:06;;;;;;;0.47;0.47;;;19.00;56.30;;;;;;5053153;28;20175;-69
2021/05/13 02:49:32;;;;;;;1.17;0.60;;;19.00;56.40;;;;;;5053641;28;20175;-69
2021/05/13 02:51:57;;;;;;;0.60;0.55;;;19.00;56.30;;;;;;5053839;28;20267;-69
2021/05/13 02:54:23;;;;;;;0.90;0.60;;;19.00;56.30;;;;;;5053128;28;20171;-69
2021/05/13 02:56:48;;;;;;;0.68;0.68;;;19.00;56.30;;;;;;5053252;28;20638;-69
2021/05/13 02:59:16;;;;;;;0.57;0.50;;;19.00;56.30;;;;;;5053511;28;20186;-69
2021/05/13 03:01:42;;;;;;;0.70;0.60;;;19.00;56.30;;;;;;5053386;28;20649;-69
2021/05/13 03:04:07;;;;;;;0.73;0.70;;;19.00;56.30;;;;;;5053806;28;20175;-68
2021/05/13 03:06:33;;;;;;;0.95;0.60;;;19.00;56.30;;;;;;5052923;28;20202;-69
2021/05/13 03:08:59;;;;;;;0.85;0.55;;;19.00;56.30;;;;;;5054140;28;20171;-68
2021/05/13 03:11:26;;;;;;;0.57;0.50;;;19.00;56.30;;;;;;5053446;28;20171;-67
2021/05/13 03:13:54;;;;;;;1.05;0.50;;;19.00;56.30;;;;;;5052688;28;20641;-68
2021/05/13 03:16:20;;;;;;;1.23;0.60;;;18.90;56.20;;;;;;5053500;28;20209;-68
2021/05/13 03:18:50;;;;;;;0.52;0.52;;;19.00;56.20;;;;;;5052615;28;20519;-68
2021/05/13 03:26:16;;;;;;;1.33;0.60;;;18.90;56.20;;;;;;5053444;28;20206;-68
2021/05/13 03:28:41;;;;;;;0.82;0.60;;;18.90;56.20;;;;;;5052526;28;20228;-68
2021/05/13 03:31:07;;;;;;;1.40;0.60;;;19.00;56.20;;;;;;5053189;28;20220;-67
2021/05/13 03:33:33;;;;;;;0.80;0.77;;;18.90;56.20;;;;;;5053069;28;20270;-67
2021/05/13 03:35:58;;;;;;;1.90;0.90;;;18.90;56.20;;;;;;5052704;28;20226;-68
2021/05/13 03:38:24;;;;;;;0.60;0.50;;;18.90;56.20;;;;;;5052731;28;20648;-68
2021/05/13 03:40:49;;;;;;;0.50;0.45;;;18.90;56.20;;;;;;5053078;28;20182;-68
2021/05/13 03:43:15;;;;;;;0.98;0.60;;;18.90;56.20;;;;;;5052155;28;20699;-68
2021/05/13 03:45:40;;;;;;;0.50;0.50;;;18.90;56.20;;;;;;5052660;28;20242;-68
2021/05/13 03:48:06;;;;;;;1.13;0.93;;;18.90;56.20;;;;;;5052934;28;20257;-68
2021/05/13 03:50:36;;;;;;;1.40;0.70;;;18.90;56.20;;;;;;5054801;28;20249;-68
2021/05/13 03:53:02;;;;;;;1.02;0.70;;;18.90;56.20;;;;;;5056716;28;20183;-68
2021/05/13 03:55:28;;;;;;;0.80;0.80;;;18.90;56.20;;;;;;5056892;28;20677;-68
2021/05/13 03:57:56;;;;;;;0.98;0.70;;;18.90;56.20;;;;;;5055957;28;20218;-69
2021/05/13 04:00:28;;;;;;;0.70;0.52;;;18.90;56.20;;;;;;5056887;28;20225;-68
2021/05/13 04:02:54;;;;;;;0.70;0.70;;;18.80;56.10;;;;;;5055884;28;20641;-68
2021/05/13 04:05:20;;;;;;;0.73;0.60;;;18.90;56.20;;;;;;5057050;28;20202;-68
2021/05/13 04:07:47;;;;;;;1.20;0.70;;;18.80;56.70;;;;;;5056088;28;20175;-68
2021/05/13 04:10:13;;;;;;;1.00;0.60;;;18.80;56.10;;;;;;5038545;28;20179;-67
2021/05/13 04:12:39;;;;;;;0.93;0.63;;;18.80;56.10;;;;;;5056250;28;20193;-68
2021/05/13 04:15:06;;;;;;;0.40;0.40;;;18.80;56.10;;;;;;5056581;28;20233;-68
2021/05/13 04:17:31;;;;;;;0.50;0.45;;;18.80;56.10;;;;;;5056177;28;20179;-68
2021/05/13 04:19:57;;;;;;;1.10;0.77;;;18.80;56.10;;;;;;5057454;28;20193;-68
2021/05/13 04:22:22;;;;;;;0.70;0.60;;;18.80;56.10;;;;;;5057046;28;20179;-68
2021/05/13 04:24:48;;;;;;;0.70;0.70;;;18.80;56.00;;;;;;5055015;28;20693;-68
2021/05/13 04:27:13;;;;;;;0.88;0.55;;;18.80;56.00;;;;;;5057227;28;20191;-67
2021/05/13 04:29:39;;;;;;;0.73;0.55;;;18.80;56.00;;;;;;5056989;28;20178;-68
2021/05/13 04:32:04;;;;;;;0.45;0.45;;;18.80;56.00;;;;;;5056290;28;20175;-67
2021/05/13 04:34:30;;;;;;;0.98;0.60;;;18.80;56.00;;;;;;5056733;28;20198;-68
2021/05/13 04:36:55;;;;;;;0.70;0.70;;;18.80;56.00;;;;;;5056987;28;20170;-68
2021/05/13 04:39:21;;;;;;;1.48;0.65;;;18.80;56.00;;;;;;5037839;28;20182;-68
2021/05/13 04:41:46;;;;;;;0.60;0.60;;;18.80;56.00;;;;;;5055976;28;20175;-68
2021/05/13 04:44:12;;;;;;;0.80;0.70;;;18.80;56.00;;;;;;5056485;28;20179;-68
2021/05/13 04:46:38;;;;;;;0.60;0.50;;;18.80;56.00;;;;;;5055320;28;20218;-68
2021/05/13 04:51:33;;;;;;;0.93;0.80;;;18.80;55.90;;;;;;5056398;28;20180;-68
2021/05/13 04:53:59;;;;;;;0.63;0.63;;;18.80;55.90;;;;;;5055595;28;20681;-68
2021/05/13 04:56:25;;;;;;;0.88;0.55;;;18.80;55.90;;;;;;5055970;28;20175;-68
2021/05/13 04:58:50;;;;;;;1.58;0.70;;;18.80;55.90;;;;;;5054450;28;20183;-69
2021/05/13 05:01:16;;;;;;;0.75;0.40;;;18.80;55.90;;;;;;5055834;28;20171;-68
2021/05/13 05:03:41;;;;;;;0.75;0.70;;;18.80;55.90;;;;;;5056056;28;20175;-68
2021/05/13 05:06:07;;;;;;;0.65;0.60;;;18.80;55.80;;;;;;5054821;28;20368;-68
2021/05/13 05:08:33;;;;;;;0.95;0.60;;;18.90;55.90;;;;;;5055927;28;20203;-68
2021/05/13 05:10:58;;;;;;;0.60;0.60;;;18.80;55.80;;;;;;5056355;28;20238;-68
2021/05/13 05:13:24;;;;;;;1.48;0.95;;;18.90;55.90;;;;;;5055304;28;20183;-68
2021/05/13 05:15:49;;;;;;;0.73;0.60;;;18.80;55.80;;;;;;5055310;28;20240;-68
2021/05/13 05:18:19;;;;;;;0.63;0.63;;;18.80;55.80;;;;;;5055242;28;20179;-69
2021/05/13 05:20:44;;;;;;;0.80;0.68;;;18.80;55.80;;;;;;5053815;28;20198;-68
2021/05/13 05:23:10;;;;;;;0.73;0.60;;;18.90;55.90;;;;;;5054573;28;20633;-68
2021/05/13 05:25:36;;;;;;;0.70;0.70;;;18.80;55.80;;;;;;5054092;28;20634;-68
2021/05/13 05:28:01;;;;;;;0.98;0.80;;;18.80;55.80;;;;;;5053846;28;20210;-68
2021/05/13 05:30:27;;;;;;;0.98;0.60;;;18.90;55.80;;;;;;5054976;28;20179;-67
2021/05/13 05:32:52;;;;;;;0.82;0.60;;;18.90;55.80;;;;;;5054318;28;20206;-68
2021/05/13 05:35:18;;;;;;;1.23;0.60;;;18.90;55.80;;;;;;5053913;28;20174;-69
2021/05/13 05:37:44;;;;;;;1.33;0.50;;;18.80;55.80;;;;;;5054516;28;20641;-68
2021/05/13 05:40:12;;;;;;;0.60;0.60;;;18.90;55.80;;;;;;5054610;28;20183;-68
2021/05/13 05:42:38;;;;;;;1.02;0.77;;;18.90;55.80;;;;;;5053499;28;20175;-69
2021/05/13 05:45:04;;;;;;;0.68;0.50;;;18.90;55.80;;;;;;5054008;28;20684;-68
2021/05/13 05:47:30;;;;;;;0.60;0.57;;;18.90;55.80;;;;;;5054250;28;20553;-68
2021/05/13 05:50:02;;;;;;;1.55;0.50;;;18.90;55.80;;;;;;5053302;28;20656;-68
2021/05/13 05:52:27;;;;;;;0.60;0.60;;;18.90;55.80;;;;;;5054274;28;20709;-68
2021/05/13 05:54:55;;;;;;;0.98;0.55;;;18.90;55.80;;;;;;5054113;28;20317;-68
2021/05/13 05:57:21;;;;;;;0.60;0.60;;;18.90;55.80;;;;;;5053435;28;20641;-69
2021/05/13 05:59:46;;;;;;;0.52;0.50;;;19.00;55.80;;;;;;5054768;28;20172;-69
2021/05/13 06:02:12;;;;;;;0.50;0.50;;;18.90;55.80;;;;;;5054471;28;20207;-68
2021/05/13 06:04:37;;;;;;;0.43;0.43;;;18.90;55.70;;;;;;5054251;28;20177;-68
2021/05/13 06:07:03;;;;;;;0.73;0.60;;;18.90;55.70;;;;;;5053856;28;20238;-67
2021/05/13 06:09:28;;;;;;;1.05;0.60;;;18.90;55.70;;;;;;5053454;28;20875;-68
2021/05/13 06:11:54;;;;;;;0.68;0.68;;;19.00;55.70;;;;;;5053893;28;20179;-68
2021/05/13 06:14:19;;;;;;;0.70;0.70;;;18.90;55.70;;;;;;5054018;28;20179;-67
2021/05/13 06:16:45;;;;;;;1.00;0.70;;;18.90;55.70;;;;;;5052698;28;20233;-68
2021/05/13 06:19:11;;;;;;;0.73;0.60;;;19.00;55.70;;;;;;5053595;28;20199;-68
2021/05/13 06:21:39;;;;;;;1.13;0.75;;;19.00;55.70;;;;;;5053419;28;20171;-68
2021/05/13 06:24:11;;;;;;;1.05;0.90;;;19.00;55.70;;;;;;5052422;28;20638;-67
2021/05/13 06:26:36;;;;;;;0.68;0.60;;;19.00;55.70;;;;;;5053421;28;20633;-68
2021/05/13 06:29:03;;;;;;;0.70;0.70;;;19.00;55.70;;;;;;5053595;28;20265;-67
2021/05/13 06:31:29;;;;;;;0.60;0.50;;;19.00;55.70;;;;;;5052829;28;20209;-68
2021/05/13 06:33:55;;;;;;;1.67;0.75;;;19.00;55.70;;;;;;5053237;28;20171;-68
2021/05/13 06:36:20;;;;;;;0.60;0.50;;;19.00;55.70;;;;;;5053214;28;20221;-68
2021/05/13 06:38:47;;;;;;;0.93;0.60;;;19.00;55.70;;;;;;5052499;28;20202;-68
2021/05/13 06:41:13;;;;;;;0.70;0.70;;;19.10;55.70;;;;;;5053197;28;20634;-68
2021/05/13 06:43:38;;;;;;;0.85;0.55;;;19.10;55.70;;;;;;5053167;28;20206;-68
2021/05/13 06:46:04;;;;;;;0.82;0.80;;;19.10;55.70;;;;;;5052454;28;20231;-69
2021/05/13 06:48:30;;;;;;;1.38;0.77;;;19.10;55.70;;;;;;5053058;28;20540;-68
2021/05/13 06:50:56;;;;;;;0.95;0.80;;;19.10;55.70;;;;;;5052975;28;20179;-69
2021/05/13 06:53:22;;;;;;;1.17;0.80;;;19.20;55.60;;;;;;5053232;28;20565;-66
2021/05/13 06:55:51;;;;;;;2.03;0.98;;;19.20;55.60;;;;;;5053369;28;20198;-66
2021/05/13 06:58:21;;;;;;;1.25;0.88;;;19.20;55.60;;;;;;5054270;28;20182;-66
2021/05/13 07:00:46;;;;;;;1.20;0.70;;;19.20;55.70;;;;;;5052508;28;20220;-66
2021/05/13 07:03:12;;;;;;;1.38;1.08;;;19.10;55.70;;;;;;5053605;28;20175;-67
2021/05/13 07:05:38;;;;;;;2.22;0.70;;;19.10;55.80;;;;;;5051999;28;20268;-68
2021/05/13 07:08:04;;;;;;;2.65;0.98;;;19.10;55.90;;;;;;5053141;28;20289;-68
2021/05/13 07:10:30;;;;;;;1.30;0.80;;;19.20;55.80;;;;;;5053229;28;20211;-73
2021/05/13 07:12:56;;;;;;;1.67;0.80;;;19.20;55.90;;;;;;5051911;28;20199;-71
2021/05/13 07:15:22;;;;;;;1.88;1.30;;;19.20;55.80;;;;;;5052845;28;20602;-72
2021/05/13 07:17:48;;;;;;;2.50;1.02;;;19.30;55.90;;;;;;5052475;28;20182;-73
2021/05/13 07:20:13;;;;;;;1.38;1.00;;;19.30;55.80;;;;;;5051769;28;20186;-73
2021/05/13 07:22:39;;;;;;;1.95;0.85;;;19.30;55.80;;;;;;5052637;28;20567;-72
2021/05/13 07:25:05;;;;;;;1.73;1.23;;;19.30;55.70;;;;;;5051830;28;20712;-72
2021/05/13 07:27:31;;;;;;;2.17;1.00;;;19.30;55.70;;;;;;5051330;28;20179;-73
2021/05/13 07:29:56;;;;;;;2.63;1.48;;;19.30;55.70;;;;;;5052371;28;20171;-73
2021/05/13 07:32:22;;;;;;;2.13;1.38;;;19.40;55.70;;;;;;5052659;28;20269;-74
2021/05/13 07:34:47;;;;;;;1.35;1.25;;;19.40;55.70;;;;;;5051232;28;20261;-73
2021/05/13 07:37:12;;;;;;;2.55;1.73;;;19.40;55.60;;;;;;5052413;28;20563;-73
2021/05/13 07:39:38;;;;;;;1.58;1.25;;;19.40;55.60;;;;;;5052283;28;20206;-73
2021/05/13 07:42:04;;;;;;;4.93;1.40;;;19.50;55.60;;;;;;5052126;28;20183;-68
2021/05/13 07:44:30;;;;;;;2.25;1.40;;;19.50;55.60;;;;;;5052632;28;20262;-68
2021/05/13 07:46:57;;;;;;;3.00;1.60;;;19.50;55.60;;;;;;5052070;28;20608;-68
2021/05/13 07:49:23;;;;;;;2.28;1.42;;;19.50;55.50;;;;;;5034055;28;20170;-68
2021/05/13 07:51:48;;;;;;;2.00;1.23;;;19.60;55.50;;;;;;5034376;28;20175;-66
2021/05/13 07:54:14;;;;;;;2.25;1.10;;;19.60;55.50;;;;;;5052532;28;20526;-66
2021/05/13 07:56:39;;;;;;;5.03;1.40;;;19.60;55.50;;;;;;5051306;28;20171;-67
2021/05/13 07:59:05;;;;;;;2.22;1.63;;;19.60;55.50;;;;;;5052197;28;20183;-67
2021/05/13 08:01:30;;;;;;;3.42;1.50;;;19.60;55.60;;;;;;5051850;28;20660;-66
2021/05/13 08:03:56;;;;;;;2.65;1.25;;;19.60;55.60;;;;;;5051320;28;20182;-68
2021/05/13 08:06:21;;;;;;;2.05;1.33;;;19.70;55.70;;;;;;5052587;28;20252;-66
2021/05/13 08:08:47;;;;;;;3.22;1.40;;;19.70;55.70;;;;;;5051309;28;20229;-66
2021/05/13 08:11:12;;;;;;;2.47;1.55;;;19.80;55.80;;;;;;5052572;28;20641;-66
2021/05/13 08:13:38;;;;;;;2.42;1.35;;;19.80;55.80;;;;;;5052380;28;20238;-66
2021/05/13 08:16:04;;;;;;;1.70;1.42;;;19.80;55.80;;;;;;5051688;28;20182;-67
2021/05/13 08:18:29;;;;;;;2.05;1.60;;;19.80;55.80;;;;;;5051822;28;20182;-67
2021/05/13 08:20:55;;;;;;;1.35;1.25;;;19.80;55.70;;;;;;5051818;28;20316;-67
2021/05/13 08:23:20;;;;;;;2.67;1.75;;;19.80;56.40;;;;;;5051550;28;20195;-67
2021/05/13 08:25:46;;;;;;;3.47;1.50;;;19.80;55.80;;;;;;5051537;28;20284;-66
2021/05/13 08:28:11;;;;;;;2.10;1.73;;;19.90;55.80;;;;;;5052054;28;20652;-66
2021/05/13 08:30:37;;;;;;;3.40;1.40;;;19.90;55.90;;;;;;5051573;28;20206;-66
2021/05/13 08:33:02;;;;;;;1.48;1.38;;;19.90;55.80;;;;;;5052578;28;20178;-66
2021/05/13 08:35:28;;;;;;;1.33;1.23;;;19.90;55.80;;;;;;5053211;28;20175;-66
2021/05/13 08:37:53;;;;;;;1.80;1.50;;;19.90;55.80;;;;;;5055060;28;20258;-74
2021/05/13 08:40:20;;;;;;;2.92;1.35;;;20.00;55.90;;;;;;5055622;28;20642;-67
2021/05/13 08:42:45;;;;;;;3.95;1.80;;;20.00;56.00;;;;;;5055572;28;20175;-67
2021/05/13 08:45:11;;;;;;;1.92;1.58;;;20.00;55.90;;;;;;5055337;28;20209;-67
2021/05/13 08:47:45;;;;;;;3.28;1.48;;;20.00;55.90;;;;;;5055442;28;20178;-67
2021/05/13 08:50:14;;;;;;;2.50;1.73;;;20.10;56.00;;;;;;5055900;28;20212;-67
2021/05/13 08:52:40;;;;;;;3.10;1.35;;;20.10;55.90;;;;;;5054772;28;20267;-68
2021/05/13 08:55:06;;;;;;;2.08;1.55;;;20.10;55.90;;;;;;5055501;28;20309;-69
2021/05/13 08:57:32;;;;;;;2.97;1.60;;;20.10;55.80;;;;;;5055257;28;20641;-69
2021/05/13 08:59:57;;;;;;;1.88;1.70;;;20.20;55.90;;;;;;5054678;28;20245;-70
2021/05/13 09:02:25;;;;;;;1.70;1.35;;;20.10;55.90;;;;;;5055265;28;20175;-69
2021/05/13 09:04:54;;;;;;;2.75;1.75;;;20.20;55.90;;;;;;5054952;28;20194;-68
2021/05/13 09:07:22;;;;;;;2.95;1.75;;;20.20;55.90;;;;;;5054827;28;20202;-68
2021/05/13 09:10:13;;;;;;;4.35;1.40;;;20.20;55.90;;;;;;5054812;28;20174;-68
2021/05/13 09:12:45;;;;;;;3.55;1.90;;;20.30;56.00;;;;;;5053838;28;20245;-68
2021/05/13 09:15:14;;;;;;;2.13;1.65;;;20.30;55.80;;;;;;5055660;28;20236;-68
2021/05/13 09:17:43;;;;;;;1.85;1.65;;;20.40;55.80;;;;;;5055031;28;20175;-68
2021/05/13 09:20:29;;;;;;;1.65;1.55;;;20.40;55.80;;;;;;5054056;28;20186;-68
2021/05/13 09:23:15;;;;;;;1.95;1.50;;;20.40;55.80;;;;;;5054351;28;20179;-68
2021/05/13 09:25:45;;;;;;;1.90;1.58;;;20.40;55.80;;;;;;5054226;28;20626;-68
2021/05/13 09:28:11;;;;;;;1.80;1.70;;;20.40;55.70;;;;;;5054236;28;20171;-68
2021/05/13 09:30:36;;;;;;;1.67;1.40;;;20.40;55.70;;;;;;5054840;28;20179;-68
2021/05/13 09:33:03;;;;;;;3.00;1.67;;;20.50;55.70;;;;;;5054557;28;20539;-66
2021/05/13 09:35:31;;;;;;;1.92;1.63;;;20.50;55.70;;;;;;5053966;28;20197;-68
2021/05/13 09:37:58;;;;;;;2.08;1.90;;;20.60;55.60;;;;;;5052837;28;20209;-68
2021/05/13 09:40:50;;;;;;;3.63;1.80;;;20.50;55.60;;;;;;5053566;28;20649;-68
2021/05/13 09:43:19;;;;;;;2.17;1.98;;;20.50;55.60;;;;;;5054465;28;20179;-68
2021/05/13 09:45:52;;;;;;;3.28;2.33;;;20.50;56.30;;;;;;5053960;28;20211;-68
2021/05/13 09:48:41;;;;;;;4.47;1.95;;;20.50;55.70;;;;;;5053076;28;20210;-69
2021/05/13 09:51:31;;;;;;;3.35;1.70;;;20.50;55.70;;;;;;5054102;28;20198;-69
2021/05/13 09:54:12;;;;;;;3.25;2.08;;;20.50;55.60;;;;;;5036111;28;20182;-68
2021/05/13 09:56:49;;;;;;;3.25;1.90;;;20.50;55.70;;;;;;5054076;28;20169;-67
2021/05/13 09:59:26;;;;;;;3.28;1.92;;;20.60;55.60;;;;;;5054088;28;20203;-67
2021/05/13 10:01:56;;;;;;;2.35;2.10;;;20.60;55.70;;;;;;5052892;28;20261;-67
2021/05/13 10:04:21;;;;;;;3.05;1.90;;;20.60;55.70;;;;;;5054009;28;20244;-68
2021/05/13 10:06:47;;;;;;;2.75;2.00;;;20.60;55.70;;;;;;5053391;28;20207;-68
2021/05/13 10:09:16;;;;;;;2.33;1.95;;;20.60;55.70;;;;;;5053139;28;20175;-67
2021/05/13 10:11:51;;;;;;;2.22;1.70;;;20.60;55.70;;;;;;5053545;28;20175;-67
2021/05/13 10:14:18;;;;;;;2.92;1.88;;;20.70;55.80;;;;;;5053972;28;20178;-67
2021/05/13 10:16:44;;;;;;;4.93;2.05;;;20.70;55.80;;;;;;5052723;28;20540;-68
2021/05/13 10:19:14;;;;;;;2.20;2.00;;;20.70;55.70;;;;;;5036002;28;20715;-67
2021/05/13 10:21:43;;;;;;;2.55;1.90;;;20.70;55.70;;;;;;5036450;28;20172;-67
2021/05/13 10:24:09;;;;;;;1.70;1.60;;;20.80;55.80;;;;;;5052927;28;20178;-67
2021/05/13 10:26:37;;;;;;;2.15;1.65;;;20.80;55.80;;;;;;5053406;28;20574;-67
2021/05/13 10:29:32;;;;;;;2.13;1.92;;;20.80;55.70;;;;;;5053437;28;20171;-67
2021/05/13 10:32:01;;;;;;;1.83;1.67;;;20.80;55.70;;;;;;5035146;28;20606;-67
2021/05/13 10:34:44;;;;;;;2.55;1.90;;;20.80;55.70;;;;;;5053333;28;20573;-68
2021/05/13 10:37:18;;;;;;;2.00;1.67;;;20.90;55.70;;;;;;5052597;28;20182;-67
2021/05/13 10:40:06;;;;;;;2.58;2.05;;;20.90;55.80;;;;;;5053137;28;20167;-67
2021/05/13 10:42:33;;;;;;;1.95;1.73;;;20.90;55.60;;;;;;5053358;28;20538;-68
2021/05/13 10:44:58;;;;;;;2.35;2.15;;;20.90;55.50;;;;;;5053004;28;20182;-67
2021/05/13 10:47:30;;;;;;;2.10;1.60;;;20.90;55.60;;;;;;5053459;28;20220;-67
2021/05/13 10:49:56;;;;;;;1.80;1.70;;;21.00;55.60;;;;;;5053396;28;20182;-67
2021/05/13 10:52:32;;;;;;;2.45;1.80;;;21.00;55.60;;;;;;5052323;28;20179;-66
2021/05/13 10:54:58;;;;;;;2.53;2.00;;;21.00;55.50;;;;;;5053136;28;20298;-68
2021/05/13 10:57:24;;;;;;;1.65;1.55;;;21.10;55.60;;;;;;5053119;28;20693;-69
2021/05/13 11:00:05;;;;;;;5.55;2.10;;;21.10;55.60;;;;;;5051193;28;20205;-68
2021/05/13 11:02:38;;;;;;;3.13;1.83;;;21.10;55.50;;;;;;5052636;28;20278;-69
2021/05/13 11:05:29;;;;;;;4.65;2.28;;;21.10;55.60;;;;;;5052045;28;20217;-69
2021/05/13 11:08:15;;;;;;;2.05;1.88;;;21.10;55.60;;;;;;5052590;28;20176;-68
2021/05/13 11:10:52;;;;;;;2.15;1.80;;;21.10;55.60;;;;;;5041567;28;20182;-67
2021/05/13 11:13:17;;;;;;;2.80;1.80;;;21.10;55.60;;;;;;5051955;28;20201;-68
2021/05/13 11:15:54;;;;;;;3.28;2.00;;;21.10;55.60;;;;;;5034569;28;20182;-69
2021/05/13 11:18:26;;;;;;;2.67;1.45;;;21.20;55.70;;;;;;5052911;28;20249;-69
2021/05/13 11:20:54;;;;;;;2.78;1.70;;;21.20;55.70;;;;;;5051398;28;20584;-69
2021/05/13 11:23:21;;;;;;;1.75;1.65;;;21.20;55.60;;;;;;5052566;28;20175;-68
2021/05/13 11:26:05;;;;;;;2.88;1.70;;;21.20;55.50;;;;;;5049976;28;20236;-68
2021/05/13 11:28:40;;;;;;;3.40;1.85;;;21.20;55.50;;;;;;5052309;28;20171;-67
2021/05/13 11:31:06;;;;;;;2.70;1.55;;;21.20;55.50;;;;;;5052495;28;20170;-68
2021/05/13 11:33:50;;;;;;;2.00;1.80;;;21.30;55.50;;;;;;5051703;28;20638;-68
2021/05/13 11:36:22;;;;;;;1.70;1.60;;;21.20;55.40;;;;;;5052210;28;20268;-68
2021/05/13 11:38:56;;;;;;;4.13;1.80;;;21.30;55.50;;;;;;5052064;28;20229;-69
2021/05/13 11:41:22;;;;;;;2.13;1.83;;;21.30;55.40;;;;;;5051929;28;20256;-69
2021/05/13 11:43:48;;;;;;;1.92;1.60;;;21.30;55.40;;;;;;5052114;28;20204;-69
2021/05/13 11:46:20;;;;;;;1.73;1.63;;;21.30;55.40;;;;;;5052278;28;20261;-69
2021/05/13 11:48:47;;;;;;;1.70;1.60;;;21.30;55.30;;;;;;5051626;28;20249;-69
2021/05/13 11:51:20;;;;;;;3.28;1.70;;;21.40;55.30;;;;;;5052370;28;20180;-68
2021/05/13 11:53:46;;;;;;;1.80;1.70;;;21.40;55.10;;;;;;5051779;28;20175;-68
2021/05/13 11:56:13;;;;;;;1.73;1.58;;;21.50;55.10;;;;;;5052279;28;20659;-68
2021/05/13 11:58:43;;;;;;;2.13;1.90;;;21.50;55.00;;;;;;5052068;28;20695;-69
2021/05/13 12:01:37;;;;;;;1.60;1.50;;;21.50;54.90;;;;;;5051506;28;20207;-69
2021/05/13 12:04:21;;;;;;;1.83;1.73;;;21.50;54.90;;;;;;5051966;28;20602;-70
2021/05/13 12:06:48;;;;;;;2.25;1.60;;;21.60;54.90;;;;;;5057637;28;20608;-66
2021/05/13 12:09:14;;;;;;;3.05;2.42;;;21.60;54.90;;;;;;5052338;28;20194;-68
2021/05/13 12:11:41;;;;;;;4.00;1.88;;;21.60;54.80;;;;;;5054480;28;20649;-66
2021/05/13 12:14:08;;;;;;;1.52;1.42;;;21.70;54.80;;;;;;5056238;28;20175;-68
2021/05/13 12:16:34;;;;;;;4.93;1.70;;;21.70;54.70;;;;;;5055501;28;20179;-68
2021/05/13 12:19:04;;;;;;;2.80;2.10;;;21.70;54.60;;;;;;5056006;28;20278;-68
2021/05/13 12:21:29;;;;;;;2.35;1.63;;;21.70;54.50;;;;;;5038651;28;20171;-68
2021/05/13 12:23:55;;;;;;;2.00;1.80;;;21.80;54.50;;;;;;5037075;28;20175;-68
2021/05/13 12:26:25;;;;;;;2.28;1.95;;;21.80;54.50;;;;;;5055708;28;20234;-67
2021/05/13 12:28:51;;;;;;;2.65;1.63;;;21.80;54.40;;;;;;5037860;28;20182;-67
2021/05/13 12:31:33;;;;;;;2.17;1.60;;;21.90;54.40;;;;;;5037103;28;20187;-67
2021/05/13 12:34:03;;;;;;;1.83;1.55;;;21.90;55.00;;;;;;5055642;28;20652;-68
2021/05/13 12:36:28;;;;;;;2.40;1.40;;;21.90;54.30;;;;;;5055055;28;20591;-68
2021/05/13 12:38:54;;;;;;;2.67;1.67;;;21.90;54.30;;;;;;5055070;28;20167;-68
2021/05/13 12:41:24;;;;;;;3.05;1.50;;;21.90;54.20;;;;;;5055935;28;20267;-68
2021/05/13 12:43:50;;;;;;;2.33;1.80;;;22.00;54.20;;;;;;5054521;28;20191;-68
2021/05/13 12:46:25;;;;;;;1.70;1.40;;;22.00;54.20;;;;;;5037954;28;20256;-68
2021/05/13 12:48:52;;;;;;;1.45;1.35;;;22.00;54.20;;;;;;5055055;28;20175;-67
2021/05/13 12:51:23;;;;;;;1.90;1.70;;;22.00;54.30;;;;;;5054636;28;20167;-68
2021/05/13 12:53:52;;;;;;;1.55;1.33;;;22.00;54.30;;;;;;5055180;28;20184;-68
2021/05/13 12:56:31;;;;;;;1.50;1.42;;;21.90;54.30;;;;;;5055424;28;20179;-67
2021/05/13 12:59:13;;;;;;;1.75;1.65;;;21.80;54.60;;;;;;5055058;28;20175;-66
2021/05/13 13:01:40;;;;;;;1.95;1.45;;;21.70;54.80;;;;;;5054971;28;20220;-68